sensor_id;sensor_type;location;lat;lon;timestamp;P1;durP1;ratioP1;P2;durP2;ratioP2
77938;SDS011;67136;47.546;21.630;2023-08-08T00:00:51;2.08;;;0.90;;
77938;SDS011;67136;47.546;21.630;2023-08-08T00:03:54;1.62;;;0.73;;
77938;SDS011;67136;47.546;21.630;2023-08-08T00:06:57;1.77;;;1.10;;
77938;SDS011;67136;47.546;21.630;2023-08-08T00:09:59;2.03;;;1.10;;
77938;SDS011;67136;47.546;21.630;2023-08-08T00:13:02;2.42;;;1.00;;
77938;SDS011;67136;47.546;21.630;2023-08-08T00:16:05;1.52;;;1.20;;
77938;SDS011;67136;47.546;21.630;2023-08-08T00:19:08;3.35;;;1.00;;
77938;SDS011;67136;47.546;21.630;2023-08-08T00:22:10;2.03;;;1.10;;
77938;SDS011;67136;47.546;21.630;2023-08-08T00:25:13;1.77;;;1.13;;
77938;SDS011;67136;47.546;21.630;2023-08-08T00:28:16;2.72;;;1.20;;
77938;SDS011;67136;47.546;21.630;2023-08-08T00:31:19;2.12;;;1.10;;
77938;SDS011;67136;47.546;21.630;2023-08-08T00:34:22;6.78;;;1.20;;
77938;SDS011;67136;47.546;21.630;2023-08-08T00:37:24;2.70;;;1.20;;
77938;SDS011;67136;47.546;21.630;2023-08-08T00:40:27;2.27;;;1.20;;
77938;SDS011;67136;47.546;21.630;2023-08-08T00:43:30;1.85;;;1.17;;
77938;SDS011;67136;47.546;21.630;2023-08-08T00:46:33;1.90;;;1.30;;
77938;SDS011;67136;47.546;21.630;2023-08-08T00:49:36;1.85;;;1.40;;
77938;SDS011;67136;47.546;21.630;2023-08-08T00:52:39;2.20;;;1.30;;
77938;SDS011;67136;47.546;21.630;2023-08-08T00:55:44;2.63;;;1.47;;
77938;SDS011;67136;47.546;21.630;2023-08-08T00:58:47;2.30;;;1.40;;
77938;SDS011;67136;47.546;21.630;2023-08-08T01:01:52;3.75;;;1.30;;
77938;SDS011;67136;47.546;21.630;2023-08-08T01:04:55;3.62;;;1.42;;
77938;SDS011;67136;47.546;21.630;2023-08-08T01:08:04;1.70;;;1.30;;
77938;SDS011;67136;47.546;21.630;2023-08-08T01:11:09;2.00;;;1.50;;
77938;SDS011;67136;47.546;21.630;2023-08-08T01:14:12;2.33;;;1.40;;
77938;SDS011;67136;47.546;21.630;2023-08-08T01:17:15;2.70;;;1.55;;
77938;SDS011;67136;47.546;21.630;2023-08-08T01:20:18;2.42;;;1.48;;
77938;SDS011;67136;47.546;21.630;2023-08-08T01:23:33;3.83;;;1.70;;
77938;SDS011;67136;47.546;21.630;2023-08-08T01:26:45;2.07;;;1.50;;
77938;SDS011;67136;47.546;21.630;2023-08-08T01:29:49;3.12;;;1.58;;
77938;SDS011;67136;47.546;21.630;2023-08-08T01:32:51;2.85;;;1.73;;
77938;SDS011;67136;47.546;21.630;2023-08-08T01:35:55;4.45;;;1.58;;
77938;SDS011;67136;47.546;21.630;2023-08-08T01:39:03;2.57;;;1.67;;
77938;SDS011;67136;47.546;21.630;2023-08-08T01:42:12;3.97;;;2.10;;
77938;SDS011;67136;47.546;21.630;2023-08-08T01:45:16;2.30;;;1.40;;
77938;SDS011;67136;47.546;21.630;2023-08-08T01:48:19;3.33;;;1.80;;
77938;SDS011;67136;47.546;21.630;2023-08-08T01:51:22;3.40;;;2.22;;
77938;SDS011;67136;47.546;21.630;2023-08-08T01:54:26;2.50;;;1.60;;
77938;SDS011;67136;47.546;21.630;2023-08-08T01:57:29;4.10;;;2.30;;
77938;SDS011;67136;47.546;21.630;2023-08-08T02:00:33;3.12;;;2.00;;
77938;SDS011;67136;47.546;21.630;2023-08-08T02:03:36;3.12;;;1.80;;
77938;SDS011;67136;47.546;21.630;2023-08-08T02:06:38;4.47;;;2.03;;
77938;SDS011;67136;47.546;21.630;2023-08-08T02:09:41;3.77;;;1.77;;
77938;SDS011;67136;47.546;21.630;2023-08-08T02:12:44;2.30;;;1.77;;
77938;SDS011;67136;47.546;21.630;2023-08-08T02:15:47;3.08;;;1.70;;
77938;SDS011;67136;47.546;21.630;2023-08-08T02:18:49;4.35;;;1.80;;
77938;SDS011;67136;47.546;21.630;2023-08-08T02:21:52;4.03;;;1.90;;
77938;SDS011;67136;47.546;21.630;2023-08-08T02:24:55;4.10;;;2.20;;
77938;SDS011;67136;47.546;21.630;2023-08-08T02:27:57;2.63;;;1.70;;
77938;SDS011;67136;47.546;21.630;2023-08-08T02:31:00;2.45;;;1.65;;
77938;SDS011;67136;47.546;21.630;2023-08-08T02:34:03;2.78;;;1.75;;
77938;SDS011;67136;47.546;21.630;2023-08-08T02:37:05;4.50;;;2.03;;
77938;SDS011;67136;47.546;21.630;2023-08-08T02:40:08;2.20;;;1.80;;
77938;SDS011;67136;47.546;21.630;2023-08-08T02:43:12;5.00;;;1.83;;
77938;SDS011;67136;47.546;21.630;2023-08-08T02:46:15;3.08;;;1.92;;
77938;SDS011;67136;47.546;21.630;2023-08-08T02:49:18;4.50;;;1.75;;
77938;SDS011;67136;47.546;21.630;2023-08-08T02:52:20;4.35;;;1.95;;
77938;SDS011;67136;47.546;21.630;2023-08-08T02:55:23;3.33;;;2.13;;
77938;SDS011;67136;47.546;21.630;2023-08-08T02:58:26;6.10;;;2.33;;
77938;SDS011;67136;47.546;21.630;2023-08-08T03:01:29;3.90;;;2.00;;
77938;SDS011;67136;47.546;21.630;2023-08-08T03:04:32;3.53;;;2.10;;
77938;SDS011;67136;47.546;21.630;2023-08-08T03:07:37;3.30;;;2.17;;
77938;SDS011;67136;47.546;21.630;2023-08-08T03:10:39;5.70;;;2.47;;
77938;SDS011;67136;47.546;21.630;2023-08-08T03:13:43;2.63;;;1.93;;
77938;SDS011;67136;47.546;21.630;2023-08-08T03:16:46;3.10;;;2.30;;
77938;SDS011;67136;47.546;21.630;2023-08-08T03:19:48;4.03;;;2.30;;
77938;SDS011;67136;47.546;21.630;2023-08-08T03:22:51;6.05;;;2.20;;
77938;SDS011;67136;47.546;21.630;2023-08-08T03:25:55;6.17;;;2.53;;
77938;SDS011;67136;47.546;21.630;2023-08-08T03:28:59;5.07;;;2.50;;
77938;SDS011;67136;47.546;21.630;2023-08-08T03:32:03;7.22;;;2.60;;
77938;SDS011;67136;47.546;21.630;2023-08-08T03:35:06;3.92;;;2.10;;
77938;SDS011;67136;47.546;21.630;2023-08-08T03:38:12;4.78;;;2.08;;
77938;SDS011;67136;47.546;21.630;2023-08-08T03:41:15;3.73;;;2.53;;
77938;SDS011;67136;47.546;21.630;2023-08-08T03:44:18;3.83;;;2.53;;
77938;SDS011;67136;47.546;21.630;2023-08-08T03:47:21;4.05;;;2.47;;
77938;SDS011;67136;47.546;21.630;2023-08-08T03:50:24;4.22;;;2.72;;
77938;SDS011;67136;47.546;21.630;2023-08-08T03:53:27;3.60;;;2.70;;
77938;SDS011;67136;47.546;21.630;2023-08-08T03:56:30;5.43;;;2.20;;
77938;SDS011;67136;47.546;21.630;2023-08-08T03:59:33;4.07;;;2.10;;
77938;SDS011;67136;47.546;21.630;2023-08-08T04:02:35;3.17;;;2.15;;
77938;SDS011;67136;47.546;21.630;2023-08-08T04:05:38;4.82;;;2.17;;
77938;SDS011;67136;47.546;21.630;2023-08-08T04:08:41;5.57;;;2.28;;
77938;SDS011;67136;47.546;21.630;2023-08-08T04:11:44;3.57;;;2.50;;
77938;SDS011;67136;47.546;21.630;2023-08-08T04:14:46;5.57;;;1.97;;
77938;SDS011;67136;47.546;21.630;2023-08-08T04:17:49;3.92;;;2.10;;
77938;SDS011;67136;47.546;21.630;2023-08-08T04:20:51;4.45;;;2.40;;
77938;SDS011;67136;47.546;21.630;2023-08-08T04:23:54;4.65;;;2.40;;
77938;SDS011;67136;47.546;21.630;2023-08-08T04:26:57;3.87;;;2.30;;
77938;SDS011;67136;47.546;21.630;2023-08-08T04:29:59;4.83;;;2.50;;
77938;SDS011;67136;47.546;21.630;2023-08-08T04:33:02;3.45;;;2.55;;
77938;SDS011;67136;47.546;21.630;2023-08-08T04:36:05;4.07;;;2.00;;
77938;SDS011;67136;47.546;21.630;2023-08-08T04:39:08;4.70;;;2.00;;
77938;SDS011;67136;47.546;21.630;2023-08-08T04:42:11;4.20;;;2.20;;
77938;SDS011;67136;47.546;21.630;2023-08-08T04:45:13;3.90;;;2.17;;
77938;SDS011;67136;47.546;21.630;2023-08-08T04:48:16;3.53;;;2.10;;
77938;SDS011;67136;47.546;21.630;2023-08-08T04:51:18;2.70;;;1.83;;
77938;SDS011;67136;47.546;21.630;2023-08-08T04:54:21;4.25;;;1.83;;
77938;SDS011;67136;47.546;21.630;2023-08-08T04:57:24;4.60;;;2.20;;
77938;SDS011;67136;47.546;21.630;2023-08-08T05:00:26;5.50;;;1.77;;
77938;SDS011;67136;47.546;21.630;2023-08-08T05:03:29;5.12;;;1.70;;
77938;SDS011;67136;47.546;21.630;2023-08-08T05:06:32;3.42;;;1.80;;
77938;SDS011;67136;47.546;21.630;2023-08-08T05:09:35;3.17;;;1.70;;
77938;SDS011;67136;47.546;21.630;2023-08-08T05:12:37;5.30;;;2.20;;
77938;SDS011;67136;47.546;21.630;2023-08-08T05:15:40;3.27;;;1.93;;
77938;SDS011;67136;47.546;21.630;2023-08-08T05:18:43;3.15;;;2.00;;
77938;SDS011;67136;47.546;21.630;2023-08-08T05:21:47;4.43;;;2.30;;
77938;SDS011;67136;47.546;21.630;2023-08-08T05:24:51;5.60;;;2.10;;
77938;SDS011;67136;47.546;21.630;2023-08-08T05:27:54;3.10;;;2.00;;
77938;SDS011;67136;47.546;21.630;2023-08-08T05:30:57;2.90;;;2.00;;
77938;SDS011;67136;47.546;21.630;2023-08-08T05:34:01;5.82;;;1.92;;
77938;SDS011;67136;47.546;21.630;2023-08-08T05:37:04;3.55;;;2.20;;
77938;SDS011;67136;47.546;21.630;2023-08-08T05:40:18;5.05;;;1.80;;
77938;SDS011;67136;47.546;21.630;2023-08-08T05:43:21;3.70;;;1.97;;
77938;SDS011;67136;47.546;21.630;2023-08-08T05:46:23;7.30;;;2.27;;
77938;SDS011;67136;47.546;21.630;2023-08-08T05:49:26;2.47;;;1.67;;
77938;SDS011;67136;47.546;21.630;2023-08-08T05:52:28;4.55;;;1.80;;
77938;SDS011;67136;47.546;21.630;2023-08-08T05:55:31;2.47;;;1.52;;
77938;SDS011;67136;47.546;21.630;2023-08-08T05:58:34;2.97;;;1.83;;
77938;SDS011;67136;47.546;21.630;2023-08-08T06:01:39;9.40;;;2.00;;
77938;SDS011;67136;47.546;21.630;2023-08-08T06:04:42;8.02;;;1.48;;
77938;SDS011;67136;47.546;21.630;2023-08-08T06:07:45;3.37;;;1.52;;
77938;SDS011;67136;47.546;21.630;2023-08-08T06:10:47;1.85;;;1.40;;
77938;SDS011;67136;47.546;21.630;2023-08-08T06:13:50;3.95;;;1.20;;
77938;SDS011;67136;47.546;21.630;2023-08-08T06:16:52;2.23;;;1.37;;
77938;SDS011;67136;47.546;21.630;2023-08-08T06:19:55;3.67;;;1.55;;
77938;SDS011;67136;47.546;21.630;2023-08-08T06:22:59;4.60;;;2.12;;
77938;SDS011;67136;47.546;21.630;2023-08-08T06:26:02;2.80;;;1.42;;
77938;SDS011;67136;47.546;21.630;2023-08-08T06:29:05;4.40;;;1.60;;
77938;SDS011;67136;47.546;21.630;2023-08-08T06:32:07;2.53;;;1.50;;
77938;SDS011;67136;47.546;21.630;2023-08-08T06:35:10;2.10;;;1.50;;
77938;SDS011;67136;47.546;21.630;2023-08-08T06:38:14;2.42;;;1.50;;
77938;SDS011;67136;47.546;21.630;2023-08-08T06:41:17;1.33;;;1.23;;
77938;SDS011;67136;47.546;21.630;2023-08-08T06:44:19;4.25;;;1.27;;
77938;SDS011;67136;47.546;21.630;2023-08-08T06:47:22;1.77;;;1.20;;
77938;SDS011;67136;47.546;21.630;2023-08-08T06:50:24;2.65;;;1.50;;
77938;SDS011;67136;47.546;21.630;2023-08-08T06:53:27;1.67;;;1.20;;
77938;SDS011;67136;47.546;21.630;2023-08-08T06:56:30;3.35;;;1.10;;
77938;SDS011;67136;47.546;21.630;2023-08-08T06:59:33;2.85;;;1.23;;
77938;SDS011;67136;47.546;21.630;2023-08-08T07:02:35;5.43;;;1.53;;
77938;SDS011;67136;47.546;21.630;2023-08-08T07:05:38;2.65;;;1.00;;
77938;SDS011;67136;47.546;21.630;2023-08-08T07:08:41;2.15;;;1.00;;
77938;SDS011;67136;47.546;21.630;2023-08-08T07:11:44;8.07;;;1.23;;
77938;SDS011;67136;47.546;21.630;2023-08-08T07:14:47;1.73;;;0.90;;
77938;SDS011;67136;47.546;21.630;2023-08-08T07:17:49;1.30;;;0.80;;
77938;SDS011;67136;47.546;21.630;2023-08-08T07:20:52;3.05;;;1.10;;
77938;SDS011;67136;47.546;21.630;2023-08-08T07:23:55;1.45;;;1.05;;
77938;SDS011;67136;47.546;21.630;2023-08-08T07:26:59;1.90;;;1.20;;
77938;SDS011;67136;47.546;21.630;2023-08-08T07:30:02;2.10;;;0.88;;
77938;SDS011;67136;47.546;21.630;2023-08-08T07:33:05;1.77;;;1.00;;
77938;SDS011;67136;47.546;21.630;2023-08-08T07:36:08;1.83;;;1.20;;
77938;SDS011;67136;47.546;21.630;2023-08-08T07:39:10;1.50;;;1.20;;
77938;SDS011;67136;47.546;21.630;2023-08-08T07:42:13;5.00;;;1.17;;
77938;SDS011;67136;47.546;21.630;2023-08-08T07:45:16;1.83;;;1.20;;
77938;SDS011;67136;47.546;21.630;2023-08-08T07:48:19;3.23;;;1.10;;
77938;SDS011;67136;47.546;21.630;2023-08-08T07:51:22;1.62;;;0.95;;
77938;SDS011;67136;47.546;21.630;2023-08-08T08:27:42;2.20;;;1.00;;
77938;SDS011;67136;47.546;21.630;2023-08-08T08:30:45;1.58;;;0.85;;
77938;SDS011;67136;47.546;21.630;2023-08-08T08:33:48;3.80;;;1.02;;
77938;SDS011;67136;47.546;21.630;2023-08-08T08:36:50;4.62;;;0.75;;
77938;SDS011;67136;47.546;21.630;2023-08-08T08:39:53;3.17;;;1.37;;
77938;SDS011;67136;47.546;21.630;2023-08-08T08:42:55;1.23;;;0.73;;
77938;SDS011;67136;47.546;21.630;2023-08-08T08:45:59;1.60;;;0.80;;
77938;SDS011;67136;47.546;21.630;2023-08-08T08:49:06;1.25;;;1.00;;
77938;SDS011;67136;47.546;21.630;2023-08-08T08:52:11;3.28;;;0.90;;
77938;SDS011;67136;47.546;21.630;2023-08-08T08:55:14;1.52;;;0.77;;
77938;SDS011;67136;47.546;21.630;2023-08-08T08:58:17;1.37;;;0.87;;
77938;SDS011;67136;47.546;21.630;2023-08-08T09:01:20;1.27;;;0.70;;
77938;SDS011;67136;47.546;21.630;2023-08-08T09:04:24;1.40;;;0.70;;
77938;SDS011;67136;47.546;21.630;2023-08-08T09:07:28;1.10;;;0.60;;
77938;SDS011;67136;47.546;21.630;2023-08-08T09:10:33;1.08;;;0.70;;
77938;SDS011;67136;47.546;21.630;2023-08-08T09:13:38;1.13;;;0.50;;
77938;SDS011;67136;47.546;21.630;2023-08-08T09:16:42;3.42;;;0.60;;
77938;SDS011;67136;47.546;21.630;2023-08-08T09:19:46;2.33;;;1.42;;
77938;SDS011;67136;47.546;21.630;2023-08-08T09:22:48;0.85;;;0.70;;
77938;SDS011;67136;47.546;21.630;2023-08-08T09:25:51;0.60;;;0.50;;
77938;SDS011;67136;47.546;21.630;2023-08-08T09:28:54;3.87;;;0.50;;
77938;SDS011;67136;47.546;21.630;2023-08-08T09:31:56;2.62;;;0.50;;
77938;SDS011;67136;47.546;21.630;2023-08-08T09:34:59;1.75;;;0.40;;
77938;SDS011;67136;47.546;21.630;2023-08-08T09:38:02;3.37;;;0.50;;
77938;SDS011;67136;47.546;21.630;2023-08-08T09:41:05;1.12;;;0.60;;
77938;SDS011;67136;47.546;21.630;2023-08-08T09:44:08;1.03;;;0.50;;
77938;SDS011;67136;47.546;21.630;2023-08-08T09:47:12;0.70;;;0.40;;
77938;SDS011;67136;47.546;21.630;2023-08-08T09:50:15;2.75;;;0.60;;
77938;SDS011;67136;47.546;21.630;2023-08-08T09:53:18;1.85;;;0.40;;
77938;SDS011;67136;47.546;21.630;2023-08-08T09:56:23;0.93;;;0.50;;
77938;SDS011;67136;47.546;21.630;2023-08-08T09:59:26;0.93;;;0.60;;
77938;SDS011;67136;47.546;21.630;2023-08-08T10:02:29;1.58;;;0.37;;
77938;SDS011;67136;47.546;21.630;2023-08-08T10:05:32;1.12;;;0.50;;
77938;SDS011;67136;47.546;21.630;2023-08-08T10:08:35;3.03;;;0.55;;
77938;SDS011;67136;47.546;21.630;2023-08-08T10:11:38;0.80;;;0.50;;
77938;SDS011;67136;47.546;21.630;2023-08-08T10:14:44;1.13;;;0.40;;
77938;SDS011;67136;47.546;21.630;2023-08-08T10:17:47;0.80;;;0.50;;
77938;SDS011;67136;47.546;21.630;2023-08-08T10:20:57;0.80;;;0.40;;
77938;SDS011;67136;47.546;21.630;2023-08-08T10:24:01;2.55;;;0.55;;
77938;SDS011;67136;47.546;21.630;2023-08-08T10:27:05;1.20;;;0.50;;
77938;SDS011;67136;47.546;21.630;2023-08-08T10:30:08;0.50;;;0.40;;
77938;SDS011;67136;47.546;21.630;2023-08-08T10:33:19;2.47;;;0.35;;
77938;SDS011;67136;47.546;21.630;2023-08-08T10:36:23;3.20;;;0.50;;
77938;SDS011;67136;47.546;21.630;2023-08-08T10:39:25;0.47;;;0.30;;
77938;SDS011;67136;47.546;21.630;2023-08-08T10:42:28;1.75;;;0.50;;
77938;SDS011;67136;47.546;21.630;2023-08-08T10:45:30;0.53;;;0.40;;
77938;SDS011;67136;47.546;21.630;2023-08-08T10:48:33;0.60;;;0.30;;
77938;SDS011;67136;47.546;21.630;2023-08-08T10:51:37;0.60;;;0.40;;
77938;SDS011;67136;47.546;21.630;2023-08-08T10:54:52;0.90;;;0.40;;
77938;SDS011;67136;47.546;21.630;2023-08-08T11:01:07;0.93;;;0.40;;
77938;SDS011;67136;47.546;21.630;2023-08-08T11:04:11;1.12;;;0.40;;
77938;SDS011;67136;47.546;21.630;2023-08-08T11:07:15;2.10;;;0.40;;
77938;SDS011;67136;47.546;21.630;2023-08-08T11:10:17;0.85;;;0.40;;
77938;SDS011;67136;47.546;21.630;2023-08-08T11:13:20;0.57;;;0.30;;
77938;SDS011;67136;47.546;21.630;2023-08-08T11:16:23;0.40;;;0.23;;
77938;SDS011;67136;47.546;21.630;2023-08-08T11:19:25;0.90;;;0.40;;
77938;SDS011;67136;47.546;21.630;2023-08-08T11:22:28;1.12;;;0.50;;
77938;SDS011;67136;47.546;21.630;2023-08-08T11:25:31;2.58;;;0.35;;
77938;SDS011;67136;47.546;21.630;2023-08-08T11:28:33;1.65;;;0.52;;
77938;SDS011;67136;47.546;21.630;2023-08-08T11:31:37;1.20;;;0.40;;
77938;SDS011;67136;47.546;21.630;2023-08-08T11:34:40;1.87;;;0.43;;
77938;SDS011;67136;47.546;21.630;2023-08-08T11:37:43;0.98;;;0.30;;
77938;SDS011;67136;47.546;21.630;2023-08-08T11:40:47;0.98;;;0.52;;
77938;SDS011;67136;47.546;21.630;2023-08-08T11:43:50;1.50;;;0.30;;
77938;SDS011;67136;47.546;21.630;2023-08-08T11:46:53;1.90;;;0.47;;
77938;SDS011;67136;47.546;21.630;2023-08-08T11:49:56;1.08;;;0.35;;
77938;SDS011;67136;47.546;21.630;2023-08-08T11:52:59;3.12;;;0.40;;
77938;SDS011;67136;47.546;21.630;2023-08-08T11:56:02;0.68;;;0.30;;
77938;SDS011;67136;47.546;21.630;2023-08-08T11:59:06;0.82;;;0.30;;
77938;SDS011;67136;47.546;21.630;2023-08-08T12:02:09;1.30;;;0.30;;
77938;SDS011;67136;47.546;21.630;2023-08-08T12:05:13;0.70;;;0.30;;
77938;SDS011;67136;47.546;21.630;2023-08-08T12:08:23;1.62;;;0.30;;
77938;SDS011;67136;47.546;21.630;2023-08-08T12:11:26;0.88;;;0.43;;
77938;SDS011;67136;47.546;21.630;2023-08-08T12:14:29;1.12;;;0.40;;
77938;SDS011;67136;47.546;21.630;2023-08-08T12:17:33;0.77;;;0.57;;
77938;SDS011;67136;47.546;21.630;2023-08-08T12:20:36;2.00;;;0.35;;
77938;SDS011;67136;47.546;21.630;2023-08-08T12:23:39;1.37;;;0.43;;
77938;SDS011;67136;47.546;21.630;2023-08-08T12:26:41;1.25;;;0.40;;
77938;SDS011;67136;47.546;21.630;2023-08-08T12:29:44;1.27;;;0.50;;
77938;SDS011;67136;47.546;21.630;2023-08-08T12:32:47;1.00;;;0.40;;
77938;SDS011;67136;47.546;21.630;2023-08-08T12:35:50;0.77;;;0.50;;
77938;SDS011;67136;47.546;21.630;2023-08-08T12:38:52;1.08;;;0.35;;
77938;SDS011;67136;47.546;21.630;2023-08-08T12:41:55;2.05;;;0.43;;
77938;SDS011;67136;47.546;21.630;2023-08-08T12:44:58;0.80;;;0.47;;
77938;SDS011;67136;47.546;21.630;2023-08-08T12:48:01;2.50;;;0.30;;
77938;SDS011;67136;47.546;21.630;2023-08-08T12:51:04;1.95;;;0.40;;
77938;SDS011;67136;47.546;21.630;2023-08-08T12:54:07;1.60;;;0.52;;
77938;SDS011;67136;47.546;21.630;2023-08-08T12:57:09;0.98;;;0.40;;
77938;SDS011;67136;47.546;21.630;2023-08-08T13:00:13;1.45;;;0.60;;
77938;SDS011;67136;47.546;21.630;2023-08-08T13:03:16;2.40;;;0.40;;
77938;SDS011;67136;47.546;21.630;2023-08-08T13:06:18;2.05;;;0.37;;
77938;SDS011;67136;47.546;21.630;2023-08-08T13:09:21;2.45;;;0.93;;
77938;SDS011;67136;47.546;21.630;2023-08-08T13:12:24;2.08;;;0.50;;
77938;SDS011;67136;47.546;21.630;2023-08-08T13:15:26;3.33;;;0.50;;
77938;SDS011;67136;47.546;21.630;2023-08-08T13:18:29;2.10;;;0.40;;
77938;SDS011;67136;47.546;21.630;2023-08-08T13:21:32;1.08;;;0.50;;
77938;SDS011;67136;47.546;21.630;2023-08-08T13:24:35;1.52;;;0.30;;
77938;SDS011;67136;47.546;21.630;2023-08-08T13:27:37;0.70;;;0.50;;
77938;SDS011;67136;47.546;21.630;2023-08-08T13:30:40;2.58;;;0.82;;
77938;SDS011;67136;47.546;21.630;2023-08-08T13:33:45;2.07;;;0.50;;
77938;SDS011;67136;47.546;21.630;2023-08-08T13:36:47;0.70;;;0.52;;
77938;SDS011;67136;47.546;21.630;2023-08-08T13:39:50;0.93;;;0.50;;
77938;SDS011;67136;47.546;21.630;2023-08-08T13:42:53;1.08;;;0.70;;
77938;SDS011;67136;47.546;21.630;2023-08-08T13:45:55;2.62;;;0.50;;
77938;SDS011;67136;47.546;21.630;2023-08-08T13:48:58;0.67;;;0.43;;
77938;SDS011;67136;47.546;21.630;2023-08-08T13:52:01;0.60;;;0.30;;
77938;SDS011;67136;47.546;21.630;2023-08-08T13:55:04;1.20;;;0.40;;
77938;SDS011;67136;47.546;21.630;2023-08-08T13:58:07;1.95;;;0.40;;
77938;SDS011;67136;47.546;21.630;2023-08-08T14:01:10;0.75;;;0.50;;
77938;SDS011;67136;47.546;21.630;2023-08-08T14:04:13;1.17;;;0.60;;
77938;SDS011;67136;47.546;21.630;2023-08-08T14:07:15;3.97;;;0.55;;
77938;SDS011;67136;47.546;21.630;2023-08-08T14:10:18;1.20;;;0.60;;
77938;SDS011;67136;47.546;21.630;2023-08-08T14:13:21;2.75;;;0.80;;
77938;SDS011;67136;47.546;21.630;2023-08-08T14:16:24;1.95;;;0.65;;
77938;SDS011;67136;47.546;21.630;2023-08-08T14:19:27;1.77;;;0.70;;
77938;SDS011;67136;47.546;21.630;2023-08-08T14:22:30;1.33;;;0.52;;
77938;SDS011;67136;47.546;21.630;2023-08-08T14:25:32;1.25;;;0.70;;
77938;SDS011;67136;47.546;21.630;2023-08-08T14:28:35;1.25;;;0.82;;
77938;SDS011;67136;47.546;21.630;2023-08-08T14:31:38;1.35;;;0.70;;
77938;SDS011;67136;47.546;21.630;2023-08-08T14:35:01;3.20;;;0.83;;
77938;SDS011;67136;47.546;21.630;2023-08-08T14:38:06;1.80;;;0.50;;
77938;SDS011;67136;47.546;21.630;2023-08-08T14:41:09;1.45;;;0.70;;
77938;SDS011;67136;47.546;21.630;2023-08-08T14:44:11;2.08;;;0.70;;
77938;SDS011;67136;47.546;21.630;2023-08-08T14:47:14;0.88;;;0.60;;
77938;SDS011;67136;47.546;21.630;2023-08-08T14:50:16;1.13;;;0.60;;
77938;SDS011;67136;47.546;21.630;2023-08-08T14:53:19;1.30;;;0.80;;
77938;SDS011;67136;47.546;21.630;2023-08-08T14:56:21;1.12;;;0.70;;
77938;SDS011;67136;47.546;21.630;2023-08-08T14:59:24;2.28;;;0.70;;
77938;SDS011;67136;47.546;21.630;2023-08-08T15:02:26;3.53;;;0.93;;
77938;SDS011;67136;47.546;21.630;2023-08-08T15:05:29;2.83;;;0.70;;
77938;SDS011;67136;47.546;21.630;2023-08-08T15:08:32;2.47;;;0.77;;
77938;SDS011;67136;47.546;21.630;2023-08-08T15:11:35;1.73;;;0.90;;
77938;SDS011;67136;47.546;21.630;2023-08-08T15:14:37;2.17;;;0.80;;
77938;SDS011;67136;47.546;21.630;2023-08-08T15:17:40;1.70;;;0.70;;
77938;SDS011;67136;47.546;21.630;2023-08-08T15:20:42;1.53;;;0.60;;
77938;SDS011;67136;47.546;21.630;2023-08-08T15:23:45;1.80;;;0.80;;
77938;SDS011;67136;47.546;21.630;2023-08-08T15:26:48;1.42;;;0.80;;
77938;SDS011;67136;47.546;21.630;2023-08-08T15:29:51;2.28;;;0.80;;
77938;SDS011;67136;47.546;21.630;2023-08-08T15:32:53;2.92;;;0.75;;
77938;SDS011;67136;47.546;21.630;2023-08-08T15:35:56;1.60;;;0.70;;
77938;SDS011;67136;47.546;21.630;2023-08-08T15:38:59;1.55;;;0.75;;
77938;SDS011;67136;47.546;21.630;2023-08-08T15:42:02;1.05;;;0.73;;
77938;SDS011;67136;47.546;21.630;2023-08-08T15:45:05;2.42;;;0.70;;
77938;SDS011;67136;47.546;21.630;2023-08-08T15:48:08;2.17;;;0.70;;
77938;SDS011;67136;47.546;21.630;2023-08-08T15:51:10;1.83;;;0.87;;
77938;SDS011;67136;47.546;21.630;2023-08-08T15:54:13;3.10;;;0.98;;
77938;SDS011;67136;47.546;21.630;2023-08-08T15:57:15;1.30;;;0.80;;
77938;SDS011;67136;47.546;21.630;2023-08-08T16:00:18;2.60;;;0.70;;
77938;SDS011;67136;47.546;21.630;2023-08-08T16:03:22;2.47;;;1.00;;
77938;SDS011;67136;47.546;21.630;2023-08-08T16:06:24;3.77;;;0.80;;
77938;SDS011;67136;47.546;21.630;2023-08-08T16:09:27;1.25;;;0.52;;
77938;SDS011;67136;47.546;21.630;2023-08-08T16:12:29;1.65;;;0.80;;
77938;SDS011;67136;47.546;21.630;2023-08-08T16:15:32;2.90;;;0.80;;
77938;SDS011;67136;47.546;21.630;2023-08-08T16:18:35;2.37;;;0.90;;
77938;SDS011;67136;47.546;21.630;2023-08-08T16:21:37;1.97;;;0.80;;
77938;SDS011;67136;47.546;21.630;2023-08-08T16:24:40;2.03;;;0.80;;
77938;SDS011;67136;47.546;21.630;2023-08-08T16:27:43;9.43;;;1.15;;
77938;SDS011;67136;47.546;21.630;2023-08-08T16:30:45;3.35;;;1.10;;
77938;SDS011;67136;47.546;21.630;2023-08-08T16:33:48;2.70;;;0.90;;
77938;SDS011;67136;47.546;21.630;2023-08-08T16:36:51;3.03;;;1.00;;
77938;SDS011;67136;47.546;21.630;2023-08-08T16:39:54;2.45;;;0.95;;
77938;SDS011;67136;47.546;21.630;2023-08-08T16:42:57;2.55;;;0.70;;
77938;SDS011;67136;47.546;21.630;2023-08-08T16:46:00;1.17;;;0.60;;
77938;SDS011;67136;47.546;21.630;2023-08-08T16:49:03;2.90;;;0.75;;
77938;SDS011;67136;47.546;21.630;2023-08-08T16:52:06;1.43;;;0.60;;
77938;SDS011;67136;47.546;21.630;2023-08-08T16:55:08;3.60;;;0.85;;
77938;SDS011;67136;47.546;21.630;2023-08-08T16:58:12;2.90;;;0.98;;
77938;SDS011;67136;47.546;21.630;2023-08-08T17:01:16;1.75;;;0.65;;
77938;SDS011;67136;47.546;21.630;2023-08-08T17:04:19;1.75;;;0.62;;
77938;SDS011;67136;47.546;21.630;2023-08-08T17:07:21;1.50;;;0.73;;
77938;SDS011;67136;47.546;21.630;2023-08-08T17:10:27;1.98;;;0.60;;
77938;SDS011;67136;47.546;21.630;2023-08-08T17:13:29;1.52;;;0.73;;
77938;SDS011;67136;47.546;21.630;2023-08-08T17:16:32;5.30;;;0.77;;
77938;SDS011;67136;47.546;21.630;2023-08-08T17:19:35;5.40;;;0.80;;
77938;SDS011;67136;47.546;21.630;2023-08-08T17:22:38;1.83;;;1.00;;
77938;SDS011;67136;47.546;21.630;2023-08-08T17:25:40;1.65;;;0.80;;
77938;SDS011;67136;47.546;21.630;2023-08-08T17:28:43;2.92;;;0.88;;
77938;SDS011;67136;47.546;21.630;2023-08-08T17:31:46;2.78;;;0.70;;
77938;SDS011;67136;47.546;21.630;2023-08-08T17:34:48;1.62;;;0.85;;
77938;SDS011;67136;47.546;21.630;2023-08-08T17:37:51;3.20;;;0.70;;
77938;SDS011;67136;47.546;21.630;2023-08-08T17:40:54;2.00;;;0.68;;
77938;SDS011;67136;47.546;21.630;2023-08-08T17:43:57;2.30;;;0.70;;
77938;SDS011;67136;47.546;21.630;2023-08-08T17:46:59;2.62;;;0.82;;
77938;SDS011;67136;47.546;21.630;2023-08-08T17:50:02;1.35;;;0.80;;
77938;SDS011;67136;47.546;21.630;2023-08-08T17:53:05;1.17;;;0.70;;
77938;SDS011;67136;47.546;21.630;2023-08-08T17:56:07;2.17;;;0.82;;
77938;SDS011;67136;47.546;21.630;2023-08-08T17:59:10;2.50;;;0.93;;
77938;SDS011;67136;47.546;21.630;2023-08-08T18:02:13;1.77;;;0.85;;
77938;SDS011;67136;47.546;21.630;2023-08-08T18:05:16;2.40;;;1.05;;
77938;SDS011;67136;47.546;21.630;2023-08-08T18:08:19;2.93;;;1.03;;
77938;SDS011;67136;47.546;21.630;2023-08-08T18:11:21;2.78;;;1.00;;
77938;SDS011;67136;47.546;21.630;2023-08-08T18:14:24;2.65;;;1.20;;
77938;SDS011;67136;47.546;21.630;2023-08-08T18:17:26;4.22;;;1.00;;
77938;SDS011;67136;47.546;21.630;2023-08-08T18:20:30;2.40;;;0.77;;
77938;SDS011;67136;47.546;21.630;2023-08-08T18:23:33;2.90;;;1.53;;
77938;SDS011;67136;47.546;21.630;2023-08-08T18:26:36;4.53;;;1.20;;
77938;SDS011;67136;47.546;21.630;2023-08-08T18:29:38;4.80;;;1.00;;
77938;SDS011;67136;47.546;21.630;2023-08-08T18:32:41;4.03;;;1.20;;
77938;SDS011;67136;47.546;21.630;2023-08-08T18:35:45;2.50;;;1.00;;
77938;SDS011;67136;47.546;21.630;2023-08-08T18:38:47;1.77;;;0.90;;
77938;SDS011;67136;47.546;21.630;2023-08-08T18:41:50;5.32;;;1.00;;